Mykolayiv, Ukraine
Current Conditions -  °F | °C
As of 1:00 PM on Sunday 23 Nov 2014 (Local Time) from UKON Reporting Station
Clear Clear  
Wind Chill: 24°   Ceiling: Unl
Heat Index: 30°   Visibility: 6mi
Dew Point: 23°   Wind: 7mph
Humidity: 75%   Direction: 30°NNE
Pressure: 30.42"   Gusts: NA
Location:  46.97°N, 32°E
Report Text: UKON 231000Z 03003MPS 360V070 CAVOK M01/M05 Q1030 NOSIG
Loading
Personal Weather Stations






























Interactive Weather Map New forecast layout! Learn more

10-Day Weather Forecast

Advertisements
Track Severe Weather on mobile